Time;durP1;ratioP1;P1;durP2;ratioP2;P2;SDS_P1;SDS_P2;PMS_P1;PMS_P2;Temp;Humidity;BMP_temperature;BMP_pressure;BME280_temperature;BME280_humidity;BME280_pressure;Samples;Min_cycle;Max_cycle;Signal;HPM_P1;HPM_P2
2023/06/04 00:02:02;;;;;;;;;;;17.70;46.10;;;13.60;86.10;95370.56;5010329;28;19916;-50
2023/06/04 00:04:28;;;;;;;;;;;17.70;46.30;;;13.53;86.53;95369.28;5010833;28;19913;-52
2023/06/04 00:06:54;;;;;;;;;;;17.60;46.40;;;13.43;88.61;95373.69;5015797;28;19915;-52
2023/06/04 00:09:20;;;;;;;;;;;17.50;46.50;;;13.34;90.24;95369.28;5011558;28;19916;-51
2023/06/04 00:11:45;;;;;;;;;;;17.50;47.20;;;13.32;89.58;95366.09;5011318;28;19909;-50
2023/06/04 00:14:13;;;;;;;;;;;17.40;46.80;;;13.25;89.28;95361.09;5004827;28;20010;-48
2023/06/04 00:16:40;;;;;;;;;;;17.30;46.90;;;13.19;89.59;95362.19;5014450;28;20306;-50
2023/06/04 00:19:06;;;;;;;;;;;17.30;47.00;;;13.14;89.98;95357.72;5016356;28;19913;-49
2023/06/04 00:21:32;;;;;;;;;;;17.20;47.20;;;13.13;90.27;95355.31;5014725;28;20296;-50
2023/06/04 00:23:59;;;;;;;;;;;17.20;47.40;;;13.09;90.30;95355.09;5007799;28;19948;-53
2023/06/04 00:26:25;;;;;;;;;;;17.20;47.50;;;13.04;90.20;95355.16;5014513;28;19915;-49
2023/06/04 00:28:51;;;;;;;;;;;17.10;47.50;;;13.00;90.47;95358.69;5015244;28;19909;-48
2023/06/04 00:31:17;;;;;;;;;;;17.10;47.70;;;12.92;91.22;95355.56;5015478;28;19909;-51
2023/06/04 00:33:43;;;;;;;;;;;17.00;47.80;;;12.89;92.38;95358.00;5014419;28;20314;-55
2023/06/04 00:36:09;;;;;;;;;;;17.00;47.90;;;12.89;93.39;95353.47;5015332;28;19927;-50
2023/06/04 00:38:34;;;;;;;;;;;17.00;48.00;;;12.95;93.42;95352.31;5015505;28;19924;-49
2023/06/04 00:41:00;;;;;;;;;;;17.00;48.20;;;13.07;92.32;95356.47;5013001;28;19909;-52
2023/06/04 00:43:27;;;;;;;;;;;16.90;48.30;;;13.11;91.02;95352.94;5015291;28;19971;-51
2023/06/04 00:45:54;;;;;;;;;;;17.00;48.40;;;13.17;90.36;95359.03;5013801;28;20574;-48
2023/06/04 00:48:21;;;;;;;;;;;17.00;48.50;;;13.20;89.80;95347.75;5015350;28;19916;-53
2023/06/04 00:50:48;;;;;;;;;;;17.00;48.60;;;13.21;89.50;95354.69;5015164;28;20287;-53
2023/06/04 00:53:14;;;;;;;;;;;17.10;48.70;;;13.20;89.90;95355.78;5027521;28;20390;-53
2023/06/04 00:55:41;;;;;;;;;;;17.10;48.70;;;13.15;90.97;95355.84;5015081;28;19909;-52
2023/06/04 00:58:08;;;;;;;;;;;17.10;48.80;;;13.15;91.03;95364.66;5000705;28;19909;-47
2023/06/04 01:00:34;;;;;;;;;;;17.10;48.80;;;13.20;90.39;95361.13;5015327;28;20019;-53
2023/06/04 01:03:07;;;;;;;;;;;17.10;48.80;;;13.24;88.94;95356.78;5001175;28;20000;-49
2023/06/04 01:06:27;;;;;;;;;;;17.10;48.90;;;13.36;87.49;95362.56;5008191;28;20008;-52
2023/06/04 01:08:57;;;;;;;;;;;17.10;48.90;;;13.44;86.79;95361.09;5007408;28;19909;-48
2023/06/04 01:11:36;;;;;;;;;;;17.20;49.00;;;13.50;85.06;95356.50;5013878;28;19916;-49
2023/06/04 01:14:10;;;;;;;;;;;17.20;49.00;;;13.57;84.83;95357.75;5014746;28;20011;-54
2023/06/04 01:17:01;;;;;;;;;;;17.30;49.10;;;13.63;87.91;95361.13;5013384;28;19953;-53
2023/06/04 01:19:54;;;;;;;;;;;17.40;49.10;;;13.64;87.55;95360.84;5003987;28;19909;-52
2023/06/04 01:22:48;;;;;;;;;;;17.40;49.20;;;13.59;88.95;95360.13;5004593;28;20460;-47
2023/06/04 01:25:41;;;;;;;;;;;17.40;49.10;;;13.58;88.30;95361.22;5010649;28;19924;-47
2023/06/04 01:28:11;;;;;;;;;;;17.40;49.20;;;13.58;88.17;95375.38;5013221;28;19913;-47
2023/06/04 01:30:45;;;;;;;;;;;17.40;49.20;;;13.57;88.40;95373.81;5014607;28;20282;-48
2023/06/04 01:33:17;;;;;;;;;;;17.40;49.20;;;13.61;87.61;95374.03;5013375;28;19921;-48
2023/06/04 01:35:44;;;;;;;;;;;17.50;49.90;;;13.62;87.81;95373.72;5014337;28;20427;-47
2023/06/04 01:38:10;;;;;;;;;;;17.50;49.30;;;13.60;87.05;95372.41;5014660;28;20303;-48
2023/06/04 01:40:36;;;;;;;;;;;17.50;49.30;;;13.60;86.92;95365.19;5023348;28;19916;-48
2023/06/04 01:43:03;;;;;;;;;;;17.50;49.30;;;13.59;86.64;95365.47;5014437;28;19909;-50
2023/06/04 01:45:30;;;;;;;;;;;17.60;49.40;;;13.56;87.12;95366.84;5013288;28;20012;-52
2023/06/04 01:47:56;;;;;;;;;;;17.60;49.40;;;13.55;87.88;95367.94;5014091;28;19913;-50
2023/06/04 01:50:22;;;;;;;;;;;17.60;49.40;;;13.58;87.93;95374.59;5013965;28;19913;-52
2023/06/04 01:52:49;;;;;;;;;;;17.60;49.50;;;13.57;87.08;95378.34;5008899;28;20284;-49
2023/06/04 01:55:17;;;;;;;;;;;17.60;49.40;;;13.53;86.91;95385.34;5014082;28;19909;-54
2023/06/04 01:57:47;;;;;;;;;;;17.60;49.50;;;13.47;89.28;95381.94;5008922;28;19917;-51
2023/06/04 02:00:14;;;;;;;;;;;17.60;49.50;;;13.47;90.34;95379.25;5005258;28;19962;-51
2023/06/04 02:02:48;;;;;;;;;;;17.60;50.10;;;13.46;90.83;95382.25;5013558;28;19916;-48
2023/06/04 02:05:14;;;;;;;;;;;17.60;49.60;;;13.49;90.43;95384.34;5011567;28;19947;-51
2023/06/04 02:07:47;;;;;;;;;;;17.60;49.70;;;13.51;90.68;95393.69;5013828;28;19909;-50
2023/06/04 02:10:16;;;;;;;;;;;17.50;49.80;;;13.49;90.20;95393.16;5011783;28;19948;-47
2023/06/04 02:12:53;;;;;;;;;;;17.50;49.80;;;13.51;90.62;95390.22;5013416;28;19913;-47
2023/06/04 02:15:19;;;;;;;;;;;17.50;49.90;;;13.49;90.11;95395.84;5011974;28;19921;-49
2023/06/04 02:17:45;;;;;;;;;;;17.50;49.90;;;13.52;89.81;95389.13;5014052;28;20265;-49
2023/06/04 02:20:11;;;;;;;;;;;17.50;50.00;;;13.56;88.99;95398.16;5013937;28;19917;-48
2023/06/04 02:22:38;;;;;;;;;;;17.60;50.10;;;13.57;88.29;95391.72;5006008;28;20380;-48
2023/06/04 02:25:05;;;;;;;;;;;17.50;50.10;;;13.62;86.61;95392.44;5013287;28;19935;-48
2023/06/04 02:27:31;;;;;;;;;;;17.60;50.20;;;13.64;85.85;95395.66;5006798;28;19917;-48
2023/06/04 02:29:57;;;;;;;;;;;17.60;50.20;;;13.65;85.39;95389.19;5008746;28;20342;-51
2023/06/04 02:32:22;;;;;;;;;;;17.60;50.10;;;13.65;84.99;95388.41;5013448;28;20004;-50
2023/06/04 02:34:48;;;;;;;;;;;17.60;50.10;;;13.67;84.86;95393.50;5011741;28;20276;-50
2023/06/04 02:37:15;;;;;;;;;;;17.60;50.10;;;13.65;84.47;95388.41;5013230;28;19952;-50
2023/06/04 02:39:40;;;;;;;;;;;17.60;50.10;;;13.63;85.37;95395.91;5011646;28;19920;-51
2023/06/04 02:42:07;;;;;;;;;;;17.60;50.10;;;13.57;85.25;95394.38;5013163;28;19958;-51
2023/06/04 02:44:32;;;;;;;;;;;17.60;50.10;;;13.55;85.25;95391.22;5013250;28;20402;-48
2023/06/04 02:46:58;;;;;;;;;;;17.60;50.70;;;13.51;85.48;95390.22;5002355;28;19909;-50
2023/06/04 02:49:24;;;;;;;;;;;17.60;50.10;;;13.49;85.37;95395.84;5012929;28;20000;-49
2023/06/04 02:51:50;;;;;;;;;;;17.60;50.10;;;13.46;85.24;95398.28;5011754;28;20389;-48
2023/06/04 02:54:17;;;;;;;;;;;17.50;50.10;;;13.39;86.82;95396.75;5012861;28;19991;-51
2023/06/04 02:56:43;;;;;;;;;;;17.60;50.20;;;13.38;86.84;95402.38;5012399;28;20279;-48
2023/06/04 02:59:09;;;;;;;;;;;17.50;50.20;;;13.35;87.21;95397.59;4999527;28;20025;-48
2023/06/04 03:01:36;;;;;;;;;;;17.50;50.20;;;13.26;88.21;95402.03;5012930;28;19909;-50
2023/06/04 03:04:09;;;;;;;;;;;17.40;50.20;;;13.20;87.97;95398.56;5009697;28;20013;-51
2023/06/04 03:06:44;;;;;;;;;;;17.40;50.90;;;13.20;87.98;95396.69;5012776;28;19944;-53
2023/06/04 03:09:11;;;;;;;;;;;17.40;50.40;;;13.20;88.04;95402.03;5011468;28;19909;-52
2023/06/04 03:11:37;;;;;;;;;;;17.30;50.40;;;13.20;88.56;95398.56;5012846;28;20007;-47
2023/06/04 03:14:03;;;;;;;;;;;17.30;51.10;;;13.19;88.35;95397.78;5012534;28;20005;-49
2023/06/04 03:16:28;;;;;;;;;;;17.30;50.50;;;13.16;88.98;95395.69;5029802;23;19925;-49
2023/06/04 03:18:55;;;;;;;;;;;17.30;50.60;;;13.14;89.55;95400.50;5029793;28;19925;-48
2023/06/04 03:21:20;;;;;;;;;;;17.30;51.30;;;13.19;89.22;95407.66;5029235;28;19909;-49
2023/06/04 03:23:46;;;;;;;;;;;17.30;50.70;;;13.19;88.80;95410.34;5031976;28;20429;-48
2023/06/04 03:26:12;;;;;;;;;;;17.30;50.80;;;13.18;88.67;95411.44;5021817;28;19916;-48
2023/06/04 03:28:38;;;;;;;;;;;17.20;50.70;;;13.17;88.34;95417.88;5010551;28;19916;-48
2023/06/04 03:31:04;;;;;;;;;;;17.30;50.80;;;13.15;88.07;95414.66;5012211;28;19909;-48
2023/06/04 03:33:30;;;;;;;;;;;17.20;50.80;;;13.13;88.18;95422.16;5011011;28;19920;-49
2023/06/04 03:35:59;;;;;;;;;;;17.30;51.50;;;13.14;88.02;95427.25;5011984;28;20299;-50
2023/06/04 03:38:26;;;;;;;;;;;17.30;51.00;;;13.14;88.29;95424.56;5011364;28;19927;-50
2023/06/04 03:40:52;;;;;;;;;;;17.30;51.00;;;13.13;87.80;95428.34;5005640;28;19909;-49
2023/06/04 03:43:21;;;;;;;;;;;17.30;51.00;;;13.14;87.70;95426.44;5011982;28;19909;-52
2023/06/04 03:45:47;;;;;;;;;;;17.30;51.00;;;13.14;87.37;95427.25;5011009;28;19909;-52
2023/06/04 03:48:13;;;;;;;;;;;17.30;51.00;;;13.13;87.20;95438.22;5011213;28;19981;-52
2023/06/04 03:50:39;;;;;;;;;;;17.30;51.00;;;13.13;87.07;95439.03;5011739;28;19909;-49
2023/06/04 03:53:05;;;;;;;;;;;17.30;51.00;;;13.12;87.14;95437.41;5010172;28;19920;-54
2023/06/04 03:55:34;;;;;;;;;;;17.40;51.00;;;13.13;87.21;95440.88;5026885;28;19909;-54
2023/06/04 03:58:00;;;;;;;;;;;17.40;51.00;;;13.13;87.44;95444.38;5010553;28;19909;-51
2023/06/04 04:00:26;;;;;;;;;;;17.40;51.00;;;13.13;87.32;95444.38;5011546;28;19919;-48
2023/06/04 04:02:52;;;;;;;;;;;17.40;51.00;;;13.13;87.41;95451.59;5011659;28;19909;-49
2023/06/04 04:05:18;;;;;;;;;;;17.40;51.00;;;13.10;88.29;95450.28;5003587;28;19909;-49
2023/06/04 04:07:43;;;;;;;;;;;17.40;51.00;;;13.12;88.54;95450.78;5011041;28;20458;-49
2023/06/04 04:10:10;;;;;;;;;;;17.40;51.00;;;13.12;88.34;95450.00;5010589;28;20011;-48
2023/06/04 04:12:35;;;;;;;;;;;17.40;51.00;;;13.05;89.47;95447.66;5011617;28;20352;-48
2023/06/04 04:15:02;;;;;;;;;;;17.40;51.00;;;13.07;91.19;95447.41;5010747;28;19909;-50
2023/06/04 04:17:27;;;;;;;;;;;17.40;51.10;;;13.12;90.96;95441.97;5010437;28;19924;-50
2023/06/04 04:19:53;;;;;;;;;;;17.40;51.00;;;13.17;90.56;95448.06;5011648;28;19913;-49
2023/06/04 04:22:19;;;;;;;;;;;17.50;51.10;;;13.20;89.95;95447.50;5000234;28;19971;-49
2023/06/04 04:24:44;;;;;;;;;;;17.50;51.10;;;13.19;90.42;95448.59;5011565;28;19917;-51
2023/06/04 04:27:13;;;;;;;;;;;17.50;51.20;;;13.23;90.72;95448.03;5010244;28;20264;-53
2023/06/04 04:29:39;;;;;;;;;;;17.50;51.20;;;13.27;90.61;95452.53;5011653;28;20415;-52
2023/06/04 04:32:10;;;;;;;;;;;17.60;51.20;;;13.31;90.61;95453.56;5012178;28;19964;-54
2023/06/04 04:34:42;;;;;;;;;;;17.60;51.30;;;13.37;90.24;95456.97;5014013;28;20323;-54
2023/06/04 04:37:09;;;;;;;;;;;17.60;51.20;;;13.41;90.07;95455.31;5014283;28;19983;-53
2023/06/04 04:39:38;;;;;;;;;;;17.70;51.30;;;13.43;89.65;95461.19;5014341;28;19916;-54
2023/06/04 04:42:04;;;;;;;;;;;17.80;51.30;;;13.44;89.98;95460.09;5015105;28;19917;-54
2023/06/04 04:44:30;;;;;;;;;;;17.80;51.20;;;13.48;89.58;95465.72;5015293;28;19909;-54
2023/06/04 04:46:56;;;;;;;;;;;17.90;51.30;;;13.52;89.64;95464.84;5013601;28;19920;-53
2023/06/04 04:49:22;;;;;;;;;;;17.90;51.30;;;13.66;89.59;95472.97;5015164;28;19916;-54
2023/06/04 04:51:47;;;;;;;;;;;17.90;51.30;;;13.87;88.83;95478.88;5010136;28;19916;-53
2023/06/04 04:54:13;;;;;;;;;;;18.10;51.30;;;13.96;87.90;95482.50;5014996;28;19917;-53
2023/06/04 04:56:39;;;;;;;;;;;18.30;51.20;;;13.98;87.87;95482.22;5014273;28;20023;-53
2023/06/04 04:59:05;;;;;;;;;;;18.40;51.20;;;14.03;87.07;95488.28;4996690;28;20275;-49
2023/06/04 05:01:31;;;;;;;;;;;18.50;51.10;;;14.11;86.38;95476.94;5010426;28;19909;-53
2023/06/04 05:03:57;;;;;;;;;;;18.60;51.00;;;14.21;86.11;95481.34;5014029;28;19909;-48
2023/06/04 05:06:22;;;;;;;;;;;18.80;50.90;;;14.29;86.12;95486.06;4999047;28;20379;-48
2023/06/04 05:08:48;;;;;;;;;;;18.90;50.90;;;14.41;85.70;95490.19;4995475;28;19910;-50
2023/06/04 05:11:14;;;;;;;;;;;19.10;50.80;;;14.55;85.51;95494.56;4996968;28;19913;-51
2023/06/04 05:13:43;;;;;;;;;;;19.30;50.60;;;14.78;85.32;95490.16;4994989;28;19913;-53
2023/06/04 05:16:11;;;;;;;;;;;19.60;50.60;;;15.00;84.69;95488.72;5001592;28;19917;-50
2023/06/04 05:18:44;;;;;;;;;;;19.80;50.40;;;15.30;82.88;95498.13;4996169;28;19948;-50
2023/06/04 05:21:11;;;;;;;;;;;20.10;50.30;;;15.61;79.99;95490.31;5002653;28;19920;-51
2023/06/04 05:23:38;;;;;;;;;;;20.40;50.00;;;15.99;76.76;95490.13;5001622;28;19910;-52
2023/06/04 05:26:05;;;;;;;;;;;20.80;50.50;;;16.37;76.01;95493.31;5006050;28;19956;-49
2023/06/04 05:28:34;;;;;;;;;;;21.10;49.60;;;16.69;74.28;95488.81;5008185;28;19916;-53
2023/06/04 05:31:00;;;;;;;;;;;21.40;49.40;;;16.80;72.53;95490.22;5003866;28;19941;-54
2023/06/04 05:33:27;;;;;;;;;;;21.50;49.10;;;16.95;72.18;95486.31;4996320;28;20299;-53
2023/06/04 05:35:59;;;;;;;;;;;21.80;48.80;;;17.06;71.71;95484.19;5014114;28;19909;-54
2023/06/04 05:38:26;;;;;;;;;;;21.90;48.60;;;17.17;71.15;95493.59;5013362;28;20375;-54
2023/06/04 05:40:54;;;;;;;;;;;22.10;48.40;;;17.24;71.04;95499.34;5013370;28;19971;-54
2023/06/04 05:43:21;;;;;;;;;;;22.20;48.20;;;17.34;70.14;95496.38;5013093;28;19932;-53
2023/06/04 05:45:47;;;;;;;;;;;22.30;48.00;;;17.47;69.37;95501.97;5012864;28;19909;-53
2023/06/04 05:48:12;;;;;;;;;;;22.50;47.80;;;17.64;69.94;95495.84;5014118;28;19916;-52
2023/06/04 05:50:38;;;;;;;;;;;22.70;47.70;;;17.80;69.37;95495.19;5014182;28;19916;-54
2023/06/04 05:53:04;;;;;;;;;;;22.80;47.50;;;18.01;69.83;95494.59;5009246;28;20399;-54
2023/06/04 05:55:30;;;;;;;;;;;23.00;47.40;;;18.21;69.52;95502.09;4994497;28;19916;-51
2023/06/04 05:57:56;;;;;;;;;;;23.20;47.10;;;18.41;67.70;95502.59;4993654;28;19916;-50
2023/06/04 06:00:23;;;;;;;;;;;23.50;47.00;;;18.78;68.82;95503.09;4998074;28;20287;-53
2023/06/04 06:02:50;;;;;;;;;;;23.80;46.70;;;18.98;63.90;95498.94;4994423;28;20020;-54
2023/06/04 06:05:18;;;;;;;;;;;24.30;47.00;;;19.12;62.64;95511.16;5009955;28;19913;-52
2023/06/04 06:07:44;;;;;;;;;;;24.70;45.90;;;19.36;61.19;95510.59;4996365;28;19909;-54
2023/06/04 06:10:11;;;;;;;;;;;25.00;45.50;;;19.52;60.21;95516.28;5003257;28;19909;-50
2023/06/04 06:12:37;;;;;;;;;;;25.30;45.10;;;19.72;59.88;95520.22;4995903;28;19944;-54
2023/06/04 06:15:06;;;;;;;;;;;25.50;44.80;;;19.84;58.36;95519.53;4994086;28;26777;-52
2023/06/04 06:17:32;;;;;;;;;;;25.80;44.50;;;19.81;58.86;95525.59;4994993;28;20422;-52
2023/06/04 06:19:59;;;;;;;;;;;25.90;44.30;;;19.91;58.44;95522.53;4994025;28;19920;-54
2023/06/04 06:22:25;;;;;;;;;;;25.90;43.90;;;19.95;57.50;95517.25;5000066;28;19913;-52
2023/06/04 06:24:51;;;;;;;;;;;26.10;43.70;;;20.07;57.19;95518.16;4994233;28;19920;-55
2023/06/04 06:27:17;;;;;;;;;;;26.20;43.40;;;20.17;56.35;95527.00;5008386;28;19928;-53
2023/06/04 06:29:44;;;;;;;;;;;26.40;43.20;;;20.13;56.62;95521.47;5004288;28;19913;-55
2023/06/04 06:32:13;;;;;;;;;;;26.40;43.00;;;19.54;58.25;95524.84;4993903;28;19922;-53
2023/06/04 06:34:38;;;;;;;;;;;26.30;42.80;;;19.39;58.30;95531.56;5001424;28;19920;-52
2023/06/04 06:37:06;;;;;;;;;;;26.20;42.70;;;19.38;58.07;95537.31;4996946;28;20035;-54
2023/06/04 06:39:32;;;;;;;;;;;26.00;42.80;;;19.49;57.63;95540.44;4997284;28;19970;-55
2023/06/04 06:41:58;;;;;;;;;;;25.80;42.70;;;19.54;58.14;95551.09;4996278;28;20372;-53
2023/06/04 06:44:23;;;;;;;;;;;25.60;42.60;;;19.13;59.27;95542.44;4993795;28;19909;-55
2023/06/04 06:46:49;;;;;;;;;;;25.50;42.70;;;18.59;61.21;95543.84;5003684;28;19909;-51
2023/06/04 06:49:18;;;;;;;;;;;25.30;42.60;;;18.91;60.54;95545.31;4992151;28;20360;-52
2023/06/04 06:51:43;;;;;;;;;;;25.20;42.70;;;18.92;59.72;95542.28;4994467;28;19913;-53
2023/06/04 06:54:10;;;;;;;;;;;25.10;42.70;;;18.58;60.76;95544.94;4993573;28;19975;-54
2023/06/04 06:56:35;;;;;;;;;;;24.90;42.60;;;18.80;60.36;95542.13;4992817;28;19913;-54
2023/06/04 06:59:01;;;;;;;;;;;24.90;42.70;;;18.75;60.22;95541.50;4992562;28;19909;-54
2023/06/04 07:01:27;;;;;;;;;;;24.90;42.60;;;19.06;59.62;95533.25;5009363;28;20379;-55
2023/06/04 07:03:53;;;;;;;;;;;25.00;42.50;;;19.32;58.06;95538.59;5008233;28;19909;-54
2023/06/04 07:06:19;;;;;;;;;;;25.10;42.40;;;19.04;59.18;95527.34;5008028;28;19909;-51
2023/06/04 07:08:44;;;;;;;;;;;25.40;42.20;;;19.36;58.66;95532.22;4993070;28;19932;-51
2023/06/04 07:11:11;;;;;;;;;;;25.50;42.10;;;19.76;58.56;95528.47;4992895;28;19999;-55
2023/06/04 07:13:39;;;;;;;;;;;25.90;41.90;;;20.06;56.53;95534.72;4991794;28;19914;-51
2023/06/04 07:16:04;;;;;;;;;;;26.10;41.90;;;20.31;56.12;95533.75;4996558;28;19953;-54
2023/06/04 07:18:30;;;;;;;;;;;26.50;41.60;;;20.85;54.52;95533.09;4993051;28;19951;-53
2023/06/04 07:20:56;;;;;;;;;;;27.10;41.30;;;21.62;52.43;95535.38;4992533;28;19914;-52
2023/06/04 07:23:22;;;;;;;;;;;27.80;41.10;;;22.33;50.02;95531.50;4993397;28;19913;-50
2023/06/04 07:25:48;;;;;;;;;;;28.50;40.80;;;22.99;47.75;95531.16;4992959;28;19909;-50
2023/06/04 07:28:13;;;;;;;;;;;29.20;40.30;;;23.65;46.57;95532.53;5005608;28;20263;-50
2023/06/04 07:30:39;;;;;;;;;;;29.90;39.80;;;23.89;44.95;95537.06;5004562;28;19909;-50
2023/06/04 07:33:06;;;;;;;;;;;30.60;39.30;;;24.28;44.29;95530.97;4993782;28;19928;-50
2023/06/04 07:35:32;;;;;;;;;;;31.20;38.70;;;24.78;43.87;95526.66;4996664;28;20012;-54
2023/06/04 07:37:58;;;;;;;;;;;31.80;38.20;;;25.03;43.60;95538.06;4992631;28;20007;-50
2023/06/04 07:40:23;;;;;;;;;;;32.40;37.60;;;25.15;41.88;95529.78;4996399;28;20326;-49
2023/06/04 07:42:49;;;;;;;;;;;32.80;37.00;;;25.34;41.66;95534.41;4992828;28;19910;-55
2023/06/04 07:45:15;;;;;;;;;;;33.10;36.60;;;25.85;41.17;95531.47;4993181;28;19910;-54
2023/06/04 07:47:43;;;;;;;;;;;33.60;36.20;;;26.27;40.43;95525.91;4998353;28;19932;-55
2023/06/04 07:50:09;;;;;;;;;;;33.90;35.80;;;26.79;39.56;95522.75;4992609;28;19910;-55
2023/06/04 07:52:35;;;;;;;;;;;34.30;35.30;;;27.07;39.11;95522.31;5002637;28;19916;-49
2023/06/04 07:55:01;;;;;;;;;;;34.60;34.90;;;27.26;38.94;95524.13;4992679;28;19910;-54
2023/06/04 07:57:27;;;;;;;;;;;35.10;34.60;;;26.73;39.19;95525.81;4994393;28;19909;-55
2023/06/04 07:59:53;;;;;;;;;;;35.30;34.10;;;26.93;39.75;95523.72;4992655;28;19916;-55
2023/06/04 08:02:19;;;;;;;;;;;35.50;33.60;;;26.97;39.12;95527.28;4992422;28;20253;-50
2023/06/04 08:04:48;;;;;;;;;;;35.60;33.30;;;26.90;39.33;95519.00;5003126;28;19909;-50
2023/06/04 08:07:14;;;;;;;;;;;35.70;33.00;;;26.80;39.68;95511.47;4998492;28;19916;-51
2023/06/04 08:09:40;;;;;;;;;;;35.80;32.60;;;26.65;39.75;95509.72;4995969;28;20323;-52
2023/06/04 08:12:06;;;;;;;;;;;35.70;32.30;;;26.60;40.97;95513.53;4996231;28;19920;-51
2023/06/04 08:14:32;;;;;;;;;;;35.70;32.30;;;27.20;39.59;95510.00;4996337;28;19921;-50
2023/06/04 08:16:58;;;;;;;;;;;35.80;32.20;;;27.09;39.63;95517.28;4995544;28;20487;-54
2023/06/04 08:19:24;;;;;;;;;;;35.70;32.10;;;26.90;39.94;95508.09;4999501;28;19910;-52
2023/06/04 08:21:50;;;;;;;;;;;35.40;32.20;;;26.68;39.88;95519.91;5000083;28;19962;-53
2023/06/04 08:24:16;;;;;;;;;;;35.00;32.10;;;26.53;39.81;95522.41;4996339;28;19910;-52
2023/06/04 08:26:42;;;;;;;;;;;34.60;32.20;;;25.93;40.50;95522.25;4997185;28;20380;-53
2023/06/04 08:29:08;;;;;;;;;;;34.20;32.20;;;25.16;42.11;95523.16;4998155;28;20338;-53
2023/06/04 08:31:34;;;;;;;;;;;33.70;32.10;;;24.65;43.45;95515.09;4996041;28;19964;-50
2023/06/04 08:34:00;;;;;;;;;;;33.20;32.10;;;24.02;44.46;95527.66;5004926;28;20406;-51
2023/06/04 08:36:27;;;;;;;;;;;32.70;32.20;;;23.75;44.98;95523.91;5001046;28;20008;-52
2023/06/04 08:38:53;;;;;;;;;;;32.10;32.30;;;23.69;45.13;95522.59;4995897;28;19909;-55
2023/06/04 08:41:48;;;;;;;;;;;31.80;32.60;;;23.68;45.61;95525.59;4995476;28;20334;-55
2023/06/04 08:44:17;;;;;;;;;;;31.40;32.80;;;23.53;46.05;95521.72;4995842;28;20396;-54
2023/06/04 08:46:44;;;;;;;;;;;31.10;33.00;;;23.52;46.42;95531.81;5001769;28;20387;-55
2023/06/04 08:49:13;;;;;;;;;;;30.90;33.10;;;23.39;46.54;95530.31;4996193;28;20360;-54
2023/06/04 08:51:40;;;;;;;;;;;30.70;33.20;;;23.07;46.95;95524.00;4999414;28;20404;-55
2023/06/04 08:54:08;;;;;;;;;;;30.60;33.40;;;23.30;47.36;95535.09;5002893;28;20374;-55
2023/06/04 08:56:35;;;;;;;;;;;30.40;33.40;;;23.67;46.93;95527.53;4995762;28;20005;-54
2023/06/04 08:59:07;;;;;;;;;;;30.40;33.60;;;23.91;45.45;95532.06;4997358;28;19909;-55
2023/06/04 09:01:36;;;;;;;;;;;30.60;33.60;;;23.94;46.40;95536.78;4994314;28;20295;-52
2023/06/04 09:04:05;;;;;;;;;;;30.70;33.60;;;24.02;46.03;95537.75;5001577;28;19916;-55
2023/06/04 09:06:33;;;;;;;;;;;30.70;33.60;;;23.95;46.25;95540.31;5006244;28;20298;-53
2023/06/04 09:09:05;;;;;;;;;;;30.80;33.70;;;24.04;45.57;95540.91;4995166;28;19909;-53
2023/06/04 09:11:42;;;;;;;;;;;30.80;33.70;;;23.70;45.84;95537.75;5004471;28;19910;-55
2023/06/04 09:14:11;;;;;;;;;;;30.80;33.60;;;23.73;46.07;95528.09;4993881;28;19917;-55
2023/06/04 09:16:52;;;;;;;;;;;30.70;33.50;;;23.46;47.35;95532.41;4995318;28;19918;-53
2023/06/04 09:19:19;;;;;;;;;;;30.60;33.50;;;23.62;46.76;95527.78;5007967;28;19916;-50
2023/06/04 09:22:02;;;;;;;;;;;30.60;33.50;;;23.46;47.03;95535.13;4999224;28;19916;-52
2023/06/04 09:24:52;;;;;;;;;;;30.60;33.50;;;23.39;46.59;95533.03;4993767;28;20004;-54
2023/06/04 09:27:22;;;;;;;;;;;30.50;33.50;;;23.44;46.93;95535.50;4999491;28;22258;-54
2023/06/04 09:29:51;;;;;;;;;;;30.50;33.50;;;23.65;47.08;95529.81;5001635;28;19916;-55
2023/06/04 09:32:29;;;;;;;;;;;30.40;33.50;;;23.55;47.11;95536.56;4994810;28;19916;-55
2023/06/04 09:35:18;;;;;;;;;;;30.40;33.50;;;23.36;46.73;95531.00;5008753;28;19928;-54
2023/06/04 09:37:57;;;;;;;;;;;30.40;33.50;;;23.17;47.80;95528.94;4994917;28;19910;-55
2023/06/04 09:40:24;;;;;;;;;;;30.30;33.40;;;23.10;48.06;95536.91;5006168;28;19935;-54
2023/06/04 09:42:54;;;;;;;;;;;30.30;33.50;;;23.06;48.48;95525.13;4994775;28;20012;-55
2023/06/04 09:45:35;;;;;;;;;;;30.30;33.60;;;22.89;48.43;95522.69;4996202;28;20524;-54
2023/06/04 09:48:02;;;;;;;;;;;30.20;33.50;;;23.12;48.59;95512.88;4998487;28;20407;-54
2023/06/04 09:50:33;;;;;;;;;;;30.30;33.50;;;22.96;48.29;95514.75;4994704;28;19940;-55
2023/06/04 09:53:00;;;;;;;;;;;30.30;33.50;;;23.00;48.20;95523.78;5008941;28;20287;-54
2023/06/04 09:55:26;;;;;;;;;;;30.30;33.40;;;23.02;48.20;95514.16;5003358;28;20379;-52
2023/06/04 09:57:53;;;;;;;;;;;30.40;33.40;;;23.25;47.66;95511.69;4996493;28;19909;-55
2023/06/04 10:00:23;;;;;;;;;;;30.40;33.30;;;23.35;48.12;95515.03;5020377;28;20346;-55
2023/06/04 10:03:01;;;;;;;;;;;30.60;33.30;;;23.48;47.46;95519.28;5015610;28;19909;-54
2023/06/04 10:05:32;;;;;;;;;;;30.70;33.20;;;23.63;47.54;95520.41;5010953;28;20295;-51
2023/06/04 10:08:07;;;;;;;;;;;30.80;33.20;;;23.58;47.04;95516.03;4994127;28;19914;-52
2023/06/04 10:10:37;;;;;;;;;;;30.90;33.10;;;23.76;47.22;95522.75;5003161;28;19940;-50
2023/06/04 10:13:18;;;;;;;;;;;31.00;33.00;;;23.68;46.45;95520.94;4994096;28;19913;-51
2023/06/04 10:15:47;;;;;;;;;;;31.10;32.90;;;23.94;46.45;95517.75;4994417;28;19932;-50
2023/06/04 10:18:15;;;;;;;;;;;31.40;32.80;;;24.51;46.16;95515.59;4994063;28;19909;-51
2023/06/04 10:20:42;;;;;;;;;;;31.90;32.60;;;25.13;44.62;95512.97;4993845;28;19909;-50
2023/06/04 10:23:08;;;;;;;;;;;32.40;32.30;;;25.49;43.87;95510.94;4993626;28;19916;-55
2023/06/04 10:25:56;;;;;;;;;;;32.90;32.00;;;25.96;42.73;95504.38;4993704;28;19909;-51
2023/06/04 10:28:40;;;;;;;;;;;33.30;31.80;;;26.35;41.37;95507.69;5006096;28;20372;-51
2023/06/04 10:31:09;;;;;;;;;;;33.70;31.60;;;26.65;40.27;95493.31;5011530;28;20028;-50
2023/06/04 10:33:41;;;;;;;;;;;34.10;31.20;;;27.36;40.20;95507.06;5007786;28;20027;-50
2023/06/04 10:36:24;;;;;;;;;;;34.50;31.00;;;27.78;38.18;95503.22;5004147;28;19916;-53
2023/06/04 10:39:07;;;;;;;;;;;34.90;30.80;;;27.99;38.28;95505.34;5013193;28;19995;-53
2023/06/04 10:41:37;;;;;;;;;;;35.20;30.40;;;28.30;36.58;95501.28;5012841;28;19909;-54
2023/06/04 10:44:32;;;;;;;;;;;35.50;30.40;;;28.54;37.43;95508.88;5013200;28;19909;-55
2023/06/04 10:47:05;;;;;;;;;;;35.60;30.30;;;28.55;37.60;95504.19;5006721;28;19916;-55
2023/06/04 10:49:36;;;;;;;;;;;35.60;30.30;;;28.53;37.59;95506.53;5012386;28;19908;-55
2023/06/04 10:52:28;;;;;;;;;;;35.60;30.30;;;28.70;37.41;95505.06;5004553;28;19924;-55
2023/06/04 10:55:17;;;;;;;;;;;35.70;30.10;;;28.67;35.60;95481.94;5012889;28;20480;-55
2023/06/04 10:58:02;;;;;;;;;;;36.00;29.90;;;29.01;35.03;95488.00;5011394;28;20383;-56
2023/06/04 11:00:49;;;;;;;;;;;36.30;29.80;;;29.14;33.47;95487.66;5012913;28;19913;-56
2023/06/04 11:03:17;;;;;;;;;;;36.60;29.50;;;28.61;33.73;95486.22;5000958;28;19970;-56
2023/06/04 11:05:56;;;;;;;;;;;36.80;29.10;;;28.18;33.30;95494.16;5012602;28;19909;-56
2023/06/04 11:08:49;;;;;;;;;;;37.00;29.00;;;28.18;34.27;95485.16;5011640;28;19935;-54
2023/06/04 11:11:29;;;;;;;;;;;37.10;28.80;;;28.03;34.44;95487.78;5002319;28;19916;-56
2023/06/04 11:16:56;;;;;;;;;;;36.90;28.60;;;28.52;33.98;95500.28;4997586;28;20368;-55
2023/06/04 11:19:23;;;;;;;;;;;36.80;28.60;;;28.11;32.77;95500.38;5012687;28;19962;-49
2023/06/04 11:21:49;;;;;;;;;;;36.70;28.50;;;27.94;34.44;95492.78;5010120;28;20284;-51
2023/06/04 11:24:16;;;;;;;;;;;36.70;28.20;;;28.26;34.82;95495.75;5012417;28;19909;-47
2023/06/04 11:26:42;;;;;;;;;;;36.80;28.00;;;28.36;34.49;95506.03;5012249;28;19909;-46
2023/06/04 11:29:11;;;;;;;;;;;37.10;28.00;;;28.40;33.62;95495.13;5011043;28;19916;-47